This is the latest recevied weather packets stored in our database for station/object KE7JVX-3. If no packets are shown the sender has not sent any weather packets the latest 10 day(s).
| Time | Temp. | Humidity | Pressure | Rain* | Wind** | Luminosity | Snow |
|---|---|---|---|---|---|---|---|
| 1777855947 | 13.33° C | 19% | 1010.2 hPa | 0 mm | - | - | - |
| 1777855767 | 13.33° C | 19% | 1010.2 hPa | 0 mm | - | - | - |
| 1777855391 | 13.33° C | 21% | 1010.3 hPa | 0 mm | - | - | - |
| 1777855167 | 13.33° C | 21% | 1010.3 hPa | 0 mm | - | - | - |
| 1777854819 | 12.78° C | 24% | 1010.4 hPa | 0 mm | - | - | - |
| 1777854567 | 12.78° C | 24% | 1010.4 hPa | 0 mm | - | - | - |
| 1777853967 | 12.78° C | 24% | 1010.5 hPa | 0 mm | - | - | - |
| 1777853367 | 12.78° C | 24% | 1010.4 hPa | 0 mm | - | - | - |
| 1777852767 | 13.33° C | 23% | 1010.5 hPa | 0 mm | - | - | - |
| 1777852168 | 14.44° C | 22% | 1010.4 hPa | 0 mm | - | - | - |
| 1777851851 | 13.89° C | 20% | 1010.5 hPa | 0 mm | - | - | - |
| 1777851567 | 13.89° C | 20% | 1010.5 hPa | 0 mm | - | - | - |
| 1777850967 | 13.33° C | 21% | 1010.7 hPa | 0 mm | - | - | - |
| 1777850367 | 13.89° C | 19% | 1010.4 hPa | 0 mm | - | - | - |
| 1777849767 | 13.33° C | 19% | 1010.5 hPa | 0 mm | - | - | - |
| 1777849379 | 13.89° C | 17% | 1010.5 hPa | 0 mm | - | - | - |
| 1777849167 | 13.89° C | 17% | 1010.5 hPa | 0 mm | - | - | - |
| 1777848950 | 13.89° C | 17% | 1010.7 hPa | 0 mm | - | - | - |
| 1777848567 | 13.89° C | 17% | 1010.7 hPa | 0 mm | - | - | - |
| 1777848376 | 13.33° C | 18% | 1010.9 hPa | 0 mm | - | - | - |
| 1777847967 | 13.33° C | 18% | 1010.9 hPa | 0 mm | - | - | - |
| 1777847368 | 13.89° C | 18% | 1011 hPa | 0 mm | - | - | - |
| 1777846982 | 13.89° C | 20% | 1011.1 hPa | 0 mm | - | - | - |
| 1777846767 | 13.89° C | 20% | 1011.1 hPa | 0 mm | - | - | - |
| 1777846465 | 14.44° C | 17% | 1011.1 hPa | 0 mm | - | - | - |
* Rain latest hour (hover to see other rain measurements)
** Current wind speed in m/s (hover to see current wind gust speed)